KAKQ/AKQ METAR and TAF weather

Enter ICAO airport designator
Station Type Date Time Source
KAKQ METAR 2020/10/20 15:54 UTC NOAA

KAKQ 201554Z AUTO 16003KT 10SM CLR 23/17 A3025 RMK AO2 SLP243 T02330172


Station Type Date Time Source
KAKQ Decoded METAR 2020/10/20 15:54 UTC NOAA

WAKEFIELD MUNICIPAL AIRPOR, VA, United States (KAKQ) 36-59N 077-00W 33M
Oct 20, 2020 - 11:54 AM EDT / 2020.10.20 1554 UTC
Wind: from the SSE (160 degrees) at 3 MPH (3 KT):0
Visibility: 10 mile(s):0
Sky conditions: clear
Temperature: 73.9 F (23.3 C)
Dew Point: 63.0 F (17.2 C)
Relative Humidity: 68%
Pressure (altimeter): 30.25 in. Hg (1024 hPa)
ob: KAKQ 201554Z AUTO 16003KT 10SM CLR 23/17 A3025 RMK AO2 SLP243 T02330172
cycle: 16

Station Type Date Time Source
KAKQ TAF UTC NOAA

Error!

Example: see airport list